sensor_id;sensor_type;location;lat;lon;timestamp;P1;durP1;ratioP1;P2;durP2;ratioP2
6037;SDS011;3047;42.600;23.470;2023-03-03T00:00:41;1.00;;;1.00;;
6037;SDS011;3047;42.600;23.470;2023-03-03T00:03:08;1.00;;;1.00;;
6037;SDS011;3047;42.600;23.470;2023-03-03T00:05:40;0.67;;;0.67;;
6037;SDS011;3047;42.600;23.470;2023-03-03T00:08:07;1.00;;;1.00;;
6037;SDS011;3047;42.600;23.470;2023-03-03T00:10:35;0.73;;;0.73;;
6037;SDS011;3047;42.600;23.470;2023-03-03T00:13:02;0.73;;;0.73;;
6037;SDS011;3047;42.600;23.470;2023-03-03T00:15:30;0.40;;;0.40;;
6037;SDS011;3047;42.600;23.470;2023-03-03T00:17:57;0.70;;;0.70;;
6037;SDS011;3047;42.600;23.470;2023-03-03T00:20:26;0.70;;;0.70;;
6037;SDS011;3047;42.600;23.470;2023-03-03T00:23:02;1.07;;;1.07;;
6037;SDS011;3047;42.600;23.470;2023-03-03T00:25:40;0.60;;;0.60;;
6037;SDS011;3047;42.600;23.470;2023-03-03T00:28:15;0.50;;;0.50;;
6037;SDS011;3047;42.600;23.470;2023-03-03T00:30:49;0.57;;;0.57;;
6037;SDS011;3047;42.600;23.470;2023-03-03T00:33:18;0.77;;;0.77;;
6037;SDS011;3047;42.600;23.470;2023-03-03T00:35:52;0.67;;;0.67;;
6037;SDS011;3047;42.600;23.470;2023-03-03T00:38:19;1.73;;;1.10;;
6037;SDS011;3047;42.600;23.470;2023-03-03T00:40:46;1.20;;;1.20;;
6037;SDS011;3047;42.600;23.470;2023-03-03T00:43:16;0.60;;;0.60;;
6037;SDS011;3047;42.600;23.470;2023-03-03T00:45:45;0.93;;;0.93;;
6037;SDS011;3047;42.600;23.470;2023-03-03T00:51:09;0.57;;;0.57;;
6037;SDS011;3047;42.600;23.470;2023-03-03T00:53:47;1.30;;;1.20;;
6037;SDS011;3047;42.600;23.470;2023-03-03T00:56:14;0.57;;;0.57;;
6037;SDS011;3047;42.600;23.470;2023-03-03T00:58:41;0.87;;;0.83;;
6037;SDS011;3047;42.600;23.470;2023-03-03T01:01:08;0.50;;;0.50;;
6037;SDS011;3047;42.600;23.470;2023-03-03T01:03:36;0.50;;;0.50;;
6037;SDS011;3047;42.600;23.470;2023-03-03T01:06:03;0.97;;;0.97;;
6037;SDS011;3047;42.600;23.470;2023-03-03T01:08:30;0.87;;;0.87;;
6037;SDS011;3047;42.600;23.470;2023-03-03T01:10:57;0.80;;;0.80;;
6037;SDS011;3047;42.600;23.470;2023-03-03T01:13:30;0.60;;;0.60;;
6037;SDS011;3047;42.600;23.470;2023-03-03T01:15:59;1.73;;;0.90;;
6037;SDS011;3047;42.600;23.470;2023-03-03T01:18:27;0.80;;;0.80;;
6037;SDS011;3047;42.600;23.470;2023-03-03T01:20:56;0.70;;;0.70;;
6037;SDS011;3047;42.600;23.470;2023-03-03T01:23:23;0.40;;;0.40;;
6037;SDS011;3047;42.600;23.470;2023-03-03T01:25:50;3.60;;;0.97;;
6037;SDS011;3047;42.600;23.470;2023-03-03T01:28:16;0.50;;;0.50;;
6037;SDS011;3047;42.600;23.470;2023-03-03T01:30:43;0.57;;;0.57;;
6037;SDS011;3047;42.600;23.470;2023-03-03T01:33:10;1.13;;;1.13;;
6037;SDS011;3047;42.600;23.470;2023-03-03T01:35:37;0.50;;;0.50;;
6037;SDS011;3047;42.600;23.470;2023-03-03T01:38:09;0.60;;;0.60;;
6037;SDS011;3047;42.600;23.470;2023-03-03T01:40:36;0.50;;;0.50;;
6037;SDS011;3047;42.600;23.470;2023-03-03T01:43:03;0.77;;;0.77;;
6037;SDS011;3047;42.600;23.470;2023-03-03T01:45:30;0.60;;;0.60;;
6037;SDS011;3047;42.600;23.470;2023-03-03T01:48:05;0.60;;;0.60;;
6037;SDS011;3047;42.600;23.470;2023-03-03T01:50:37;0.57;;;0.57;;
6037;SDS011;3047;42.600;23.470;2023-03-03T01:53:14;0.80;;;0.80;;
6037;SDS011;3047;42.600;23.470;2023-03-03T01:55:44;1.03;;;1.03;;
6037;SDS011;3047;42.600;23.470;2023-03-03T01:58:13;0.53;;;0.53;;
6037;SDS011;3047;42.600;23.470;2023-03-03T02:00:44;1.07;;;1.07;;
6037;SDS011;3047;42.600;23.470;2023-03-03T02:03:15;0.67;;;0.67;;
6037;SDS011;3047;42.600;23.470;2023-03-03T02:05:43;0.60;;;0.60;;
6037;SDS011;3047;42.600;23.470;2023-03-03T02:08:10;1.00;;;1.00;;
6037;SDS011;3047;42.600;23.470;2023-03-03T02:10:41;0.50;;;0.50;;
6037;SDS011;3047;42.600;23.470;2023-03-03T02:13:10;0.53;;;0.53;;
6037;SDS011;3047;42.600;23.470;2023-03-03T02:15:37;0.60;;;0.60;;
6037;SDS011;3047;42.600;23.470;2023-03-03T02:18:05;1.13;;;1.13;;
6037;SDS011;3047;42.600;23.470;2023-03-03T02:20:37;1.30;;;1.20;;
6037;SDS011;3047;42.600;23.470;2023-03-03T02:23:15;0.90;;;0.90;;
6037;SDS011;3047;42.600;23.470;2023-03-03T02:25:48;0.60;;;0.60;;
6037;SDS011;3047;42.600;23.470;2023-03-03T02:28:28;0.87;;;0.87;;
6037;SDS011;3047;42.600;23.470;2023-03-03T02:30:56;1.00;;;1.00;;
6037;SDS011;3047;42.600;23.470;2023-03-03T02:33:25;0.70;;;0.70;;
6037;SDS011;3047;42.600;23.470;2023-03-03T02:35:53;0.93;;;0.93;;
6037;SDS011;3047;42.600;23.470;2023-03-03T02:38:20;0.57;;;0.57;;
6037;SDS011;3047;42.600;23.470;2023-03-03T02:40:55;0.60;;;0.60;;
6037;SDS011;3047;42.600;23.470;2023-03-03T02:43:30;0.50;;;0.50;;
6037;SDS011;3047;42.600;23.470;2023-03-03T02:46:02;0.77;;;0.77;;
6037;SDS011;3047;42.600;23.470;2023-03-03T02:48:28;1.37;;;1.37;;
6037;SDS011;3047;42.600;23.470;2023-03-03T02:50:55;1.13;;;1.03;;
6037;SDS011;3047;42.600;23.470;2023-03-03T02:53:22;0.90;;;0.90;;
6037;SDS011;3047;42.600;23.470;2023-03-03T02:55:49;1.03;;;1.00;;
6037;SDS011;3047;42.600;23.470;2023-03-03T02:58:17;0.53;;;0.53;;
6037;SDS011;3047;42.600;23.470;2023-03-03T03:00:44;0.70;;;0.70;;
6037;SDS011;3047;42.600;23.470;2023-03-03T03:03:11;0.90;;;0.90;;
6037;SDS011;3047;42.600;23.470;2023-03-03T03:05:38;0.60;;;0.60;;
6037;SDS011;3047;42.600;23.470;2023-03-03T03:08:05;0.47;;;0.47;;
6037;SDS011;3047;42.600;23.470;2023-03-03T03:10:32;0.80;;;0.80;;
6037;SDS011;3047;42.600;23.470;2023-03-03T03:12:58;0.53;;;0.53;;
6037;SDS011;3047;42.600;23.470;2023-03-03T03:15:27;0.50;;;0.50;;
6037;SDS011;3047;42.600;23.470;2023-03-03T03:17:53;1.10;;;1.00;;
6037;SDS011;3047;42.600;23.470;2023-03-03T03:20:20;0.60;;;0.60;;
6037;SDS011;3047;42.600;23.470;2023-03-03T03:22:47;1.03;;;1.03;;
6037;SDS011;3047;42.600;23.470;2023-03-03T03:25:14;0.73;;;0.73;;
6037;SDS011;3047;42.600;23.470;2023-03-03T03:27:40;0.73;;;0.73;;
6037;SDS011;3047;42.600;23.470;2023-03-03T03:30:07;2.30;;;0.93;;
6037;SDS011;3047;42.600;23.470;2023-03-03T03:32:36;0.87;;;0.87;;
6037;SDS011;3047;42.600;23.470;2023-03-03T03:35:03;0.90;;;0.90;;
6037;SDS011;3047;42.600;23.470;2023-03-03T03:37:30;0.43;;;0.43;;
6037;SDS011;3047;42.600;23.470;2023-03-03T03:39:57;0.57;;;0.57;;
6037;SDS011;3047;42.600;23.470;2023-03-03T03:42:23;3.67;;;1.17;;
6037;SDS011;3047;42.600;23.470;2023-03-03T03:44:50;5.47;;;1.50;;
6037;SDS011;3047;42.600;23.470;2023-03-03T03:47:16;0.60;;;0.60;;
6037;SDS011;3047;42.600;23.470;2023-03-03T03:49:45;0.77;;;0.77;;
6037;SDS011;3047;42.600;23.470;2023-03-03T03:52:11;0.70;;;0.70;;
6037;SDS011;3047;42.600;23.470;2023-03-03T03:54:38;1.17;;;1.17;;
6037;SDS011;3047;42.600;23.470;2023-03-03T03:57:05;0.77;;;0.77;;
6037;SDS011;3047;42.600;23.470;2023-03-03T03:59:31;0.70;;;0.70;;
6037;SDS011;3047;42.600;23.470;2023-03-03T04:01:58;0.70;;;0.60;;
6037;SDS011;3047;42.600;23.470;2023-03-03T04:04:25;0.70;;;0.70;;
6037;SDS011;3047;42.600;23.470;2023-03-03T04:06:53;1.07;;;1.07;;
6037;SDS011;3047;42.600;23.470;2023-03-03T04:09:19;0.90;;;0.90;;
6037;SDS011;3047;42.600;23.470;2023-03-03T04:11:46;1.10;;;1.10;;
6037;SDS011;3047;42.600;23.470;2023-03-03T04:14:13;1.60;;;1.00;;
6037;SDS011;3047;42.600;23.470;2023-03-03T04:16:39;0.70;;;0.70;;
6037;SDS011;3047;42.600;23.470;2023-03-03T04:19:06;0.60;;;0.60;;
6037;SDS011;3047;42.600;23.470;2023-03-03T04:21:32;0.70;;;0.70;;
6037;SDS011;3047;42.600;23.470;2023-03-03T04:24:01;0.67;;;0.67;;
6037;SDS011;3047;42.600;23.470;2023-03-03T04:26:28;0.87;;;0.87;;
6037;SDS011;3047;42.600;23.470;2023-03-03T04:28:55;1.23;;;1.23;;
6037;SDS011;3047;42.600;23.470;2023-03-03T04:31:22;0.50;;;0.50;;
6037;SDS011;3047;42.600;23.470;2023-03-03T04:33:49;0.57;;;0.57;;
6037;SDS011;3047;42.600;23.470;2023-03-03T04:36:17;0.73;;;0.73;;
6037;SDS011;3047;42.600;23.470;2023-03-03T04:38:44;1.33;;;1.27;;
6037;SDS011;3047;42.600;23.470;2023-03-03T04:41:12;0.50;;;0.50;;
6037;SDS011;3047;42.600;23.470;2023-03-03T04:43:39;0.53;;;0.53;;
6037;SDS011;3047;42.600;23.470;2023-03-03T04:46:05;0.60;;;0.60;;
6037;SDS011;3047;42.600;23.470;2023-03-03T04:48:32;0.43;;;0.43;;
6037;SDS011;3047;42.600;23.470;2023-03-03T04:50:59;1.23;;;1.13;;
6037;SDS011;3047;42.600;23.470;2023-03-03T04:53:26;0.53;;;0.53;;
6037;SDS011;3047;42.600;23.470;2023-03-03T04:55:52;0.43;;;0.43;;
6037;SDS011;3047;42.600;23.470;2023-03-03T04:58:20;0.47;;;0.47;;
6037;SDS011;3047;42.600;23.470;2023-03-03T05:00:52;0.80;;;0.80;;
6037;SDS011;3047;42.600;23.470;2023-03-03T05:03:20;0.70;;;0.70;;
6037;SDS011;3047;42.600;23.470;2023-03-03T05:05:47;0.80;;;0.80;;
6037;SDS011;3047;42.600;23.470;2023-03-03T05:08:14;0.50;;;0.50;;
6037;SDS011;3047;42.600;23.470;2023-03-03T05:10:41;0.63;;;0.63;;
6037;SDS011;3047;42.600;23.470;2023-03-03T05:13:08;1.23;;;0.77;;
6037;SDS011;3047;42.600;23.470;2023-03-03T05:15:36;0.50;;;0.50;;
6037;SDS011;3047;42.600;23.470;2023-03-03T05:18:03;0.90;;;0.90;;
6037;SDS011;3047;42.600;23.470;2023-03-03T05:20:30;1.00;;;0.53;;
6037;SDS011;3047;42.600;23.470;2023-03-03T05:22:57;0.47;;;0.47;;
6037;SDS011;3047;42.600;23.470;2023-03-03T05:25:25;0.70;;;0.70;;
6037;SDS011;3047;42.600;23.470;2023-03-03T05:27:52;0.80;;;0.80;;
6037;SDS011;3047;42.600;23.470;2023-03-03T05:30:19;1.33;;;0.87;;
6037;SDS011;3047;42.600;23.470;2023-03-03T05:32:47;0.60;;;0.60;;
6037;SDS011;3047;42.600;23.470;2023-03-03T05:35:14;1.33;;;1.33;;
6037;SDS011;3047;42.600;23.470;2023-03-03T05:37:41;0.60;;;0.60;;
6037;SDS011;3047;42.600;23.470;2023-03-03T05:40:11;0.70;;;0.70;;
6037;SDS011;3047;42.600;23.470;2023-03-03T05:42:39;0.60;;;0.60;;
6037;SDS011;3047;42.600;23.470;2023-03-03T05:45:06;0.60;;;0.60;;
6037;SDS011;3047;42.600;23.470;2023-03-03T05:47:33;0.50;;;0.50;;
6037;SDS011;3047;42.600;23.470;2023-03-03T05:50:01;0.47;;;0.47;;
6037;SDS011;3047;42.600;23.470;2023-03-03T05:52:28;0.90;;;0.90;;
6037;SDS011;3047;42.600;23.470;2023-03-03T05:54:55;1.00;;;1.00;;
6037;SDS011;3047;42.600;23.470;2023-03-03T05:57:21;0.60;;;0.60;;
6037;SDS011;3047;42.600;23.470;2023-03-03T05:59:48;0.97;;;0.97;;
6037;SDS011;3047;42.600;23.470;2023-03-03T06:02:15;1.50;;;1.03;;
6037;SDS011;3047;42.600;23.470;2023-03-03T06:04:42;2.53;;;1.60;;
6037;SDS011;3047;42.600;23.470;2023-03-03T06:07:10;1.00;;;1.00;;
6037;SDS011;3047;42.600;23.470;2023-03-03T06:09:36;0.93;;;0.93;;
6037;SDS011;3047;42.600;23.470;2023-03-03T06:12:04;0.63;;;0.63;;
6037;SDS011;3047;42.600;23.470;2023-03-03T06:14:30;0.63;;;0.63;;
6037;SDS011;3047;42.600;23.470;2023-03-03T06:16:57;0.50;;;0.50;;
6037;SDS011;3047;42.600;23.470;2023-03-03T06:19:24;1.17;;;1.07;;
6037;SDS011;3047;42.600;23.470;2023-03-03T06:21:51;0.77;;;0.77;;
6037;SDS011;3047;42.600;23.470;2023-03-03T06:24:19;0.63;;;0.63;;
6037;SDS011;3047;42.600;23.470;2023-03-03T06:26:49;0.70;;;0.70;;
6037;SDS011;3047;42.600;23.470;2023-03-03T06:29:16;0.60;;;0.60;;
6037;SDS011;3047;42.600;23.470;2023-03-03T06:31:42;0.77;;;0.77;;
6037;SDS011;3047;42.600;23.470;2023-03-03T06:34:09;0.50;;;0.50;;
6037;SDS011;3047;42.600;23.470;2023-03-03T06:36:36;0.60;;;0.60;;
6037;SDS011;3047;42.600;23.470;2023-03-03T06:39:03;0.50;;;0.50;;
6037;SDS011;3047;42.600;23.470;2023-03-03T06:41:31;0.47;;;0.47;;
6037;SDS011;3047;42.600;23.470;2023-03-03T06:43:57;0.60;;;0.60;;
6037;SDS011;3047;42.600;23.470;2023-03-03T06:46:25;1.00;;;0.73;;
6037;SDS011;3047;42.600;23.470;2023-03-03T06:48:52;3.50;;;1.60;;
6037;SDS011;3047;42.600;23.470;2023-03-03T06:51:21;0.67;;;0.67;;
6037;SDS011;3047;42.600;23.470;2023-03-03T06:53:51;1.00;;;1.00;;
6037;SDS011;3047;42.600;23.470;2023-03-03T06:56:20;0.93;;;0.93;;
6037;SDS011;3047;42.600;23.470;2023-03-03T06:58:49;0.70;;;0.70;;
6037;SDS011;3047;42.600;23.470;2023-03-03T07:01:18;0.60;;;0.60;;
6037;SDS011;3047;42.600;23.470;2023-03-03T07:03:45;1.10;;;1.10;;
6037;SDS011;3047;42.600;23.470;2023-03-03T07:06:17;0.60;;;0.60;;
6037;SDS011;3047;42.600;23.470;2023-03-03T07:08:47;1.70;;;1.60;;
6037;SDS011;3047;42.600;23.470;2023-03-03T07:11:15;0.60;;;0.60;;
6037;SDS011;3047;42.600;23.470;2023-03-03T07:13:45;0.57;;;0.57;;
6037;SDS011;3047;42.600;23.470;2023-03-03T07:16:15;0.73;;;0.73;;
6037;SDS011;3047;42.600;23.470;2023-03-03T07:18:44;0.70;;;0.70;;
6037;SDS011;3047;42.600;23.470;2023-03-03T07:21:17;0.97;;;0.97;;
6037;SDS011;3047;42.600;23.470;2023-03-03T07:23:45;0.80;;;0.80;;
6037;SDS011;3047;42.600;23.470;2023-03-03T07:26:14;0.40;;;0.40;;
6037;SDS011;3047;42.600;23.470;2023-03-03T07:28:43;0.67;;;0.67;;
6037;SDS011;3047;42.600;23.470;2023-03-03T07:33:56;0.93;;;0.77;;
6037;SDS011;3047;42.600;23.470;2023-03-03T07:36:28;0.70;;;0.70;;
6037;SDS011;3047;42.600;23.470;2023-03-03T07:38:57;1.33;;;1.33;;
6037;SDS011;3047;42.600;23.470;2023-03-03T07:41:26;0.70;;;0.70;;
6037;SDS011;3047;42.600;23.470;2023-03-03T07:43:53;0.73;;;0.73;;
6037;SDS011;3047;42.600;23.470;2023-03-03T07:46:29;1.40;;;1.33;;
6037;SDS011;3047;42.600;23.470;2023-03-03T07:49:01;0.73;;;0.73;;
6037;SDS011;3047;42.600;23.470;2023-03-03T07:51:45;0.97;;;0.97;;
6037;SDS011;3047;42.600;23.470;2023-03-03T07:54:14;1.00;;;1.00;;
6037;SDS011;3047;42.600;23.470;2023-03-03T07:56:52;0.63;;;0.63;;
6037;SDS011;3047;42.600;23.470;2023-03-03T07:59:22;0.50;;;0.50;;
6037;SDS011;3047;42.600;23.470;2023-03-03T08:01:52;4.40;;;1.57;;
6037;SDS011;3047;42.600;23.470;2023-03-03T08:04:21;1.00;;;1.00;;
6037;SDS011;3047;42.600;23.470;2023-03-03T08:06:50;0.70;;;0.70;;
6037;SDS011;3047;42.600;23.470;2023-03-03T08:15:12;0.90;;;0.90;;
6037;SDS011;3047;42.600;23.470;2023-03-03T08:17:44;1.37;;;1.23;;
6037;SDS011;3047;42.600;23.470;2023-03-03T08:23:04;0.67;;;0.67;;
6037;SDS011;3047;42.600;23.470;2023-03-03T08:25:30;0.70;;;0.70;;
6037;SDS011;3047;42.600;23.470;2023-03-03T08:27:57;1.43;;;1.33;;
6037;SDS011;3047;42.600;23.470;2023-03-03T08:30:24;0.67;;;0.67;;
6037;SDS011;3047;42.600;23.470;2023-03-03T08:32:52;0.77;;;0.77;;
6037;SDS011;3047;42.600;23.470;2023-03-03T08:35:18;0.70;;;0.70;;
6037;SDS011;3047;42.600;23.470;2023-03-03T08:37:45;0.60;;;0.60;;
6037;SDS011;3047;42.600;23.470;2023-03-03T08:40:12;0.57;;;0.57;;
6037;SDS011;3047;42.600;23.470;2023-03-03T08:42:38;0.73;;;0.73;;
6037;SDS011;3047;42.600;23.470;2023-03-03T08:45:05;0.63;;;0.63;;
6037;SDS011;3047;42.600;23.470;2023-03-03T08:47:32;0.57;;;0.57;;
6037;SDS011;3047;42.600;23.470;2023-03-03T08:50:00;1.00;;;1.00;;
6037;SDS011;3047;42.600;23.470;2023-03-03T08:52:27;0.73;;;0.73;;
6037;SDS011;3047;42.600;23.470;2023-03-03T08:54:54;1.03;;;1.00;;
6037;SDS011;3047;42.600;23.470;2023-03-03T08:57:20;0.60;;;0.60;;
6037;SDS011;3047;42.600;23.470;2023-03-03T08:59:47;0.70;;;0.70;;
6037;SDS011;3047;42.600;23.470;2023-03-03T09:02:14;0.87;;;0.87;;
6037;SDS011;3047;42.600;23.470;2023-03-03T09:04:41;0.50;;;0.50;;
6037;SDS011;3047;42.600;23.470;2023-03-03T09:07:09;0.67;;;0.67;;
6037;SDS011;3047;42.600;23.470;2023-03-03T09:09:36;0.80;;;0.80;;
6037;SDS011;3047;42.600;23.470;2023-03-03T09:12:08;1.07;;;1.07;;
6037;SDS011;3047;42.600;23.470;2023-03-03T09:14:41;0.80;;;0.80;;
6037;SDS011;3047;42.600;23.470;2023-03-03T09:17:21;1.20;;;1.10;;
6037;SDS011;3047;42.600;23.470;2023-03-03T09:19:51;0.60;;;0.60;;
6037;SDS011;3047;42.600;23.470;2023-03-03T09:22:22;0.60;;;0.60;;
6037;SDS011;3047;42.600;23.470;2023-03-03T09:24:51;0.83;;;0.83;;
6037;SDS011;3047;42.600;23.470;2023-03-03T09:27:21;0.73;;;0.73;;
6037;SDS011;3047;42.600;23.470;2023-03-03T09:29:52;0.70;;;0.70;;
6037;SDS011;3047;42.600;23.470;2023-03-03T09:38:14;1.23;;;1.13;;
6037;SDS011;3047;42.600;23.470;2023-03-03T09:40:52;1.63;;;1.60;;
6037;SDS011;3047;42.600;23.470;2023-03-03T09:43:34;0.90;;;0.90;;
6037;SDS011;3047;42.600;23.470;2023-03-03T09:46:10;0.90;;;0.90;;
6037;SDS011;3047;42.600;23.470;2023-03-03T09:48:48;2.37;;;1.40;;
6037;SDS011;3047;42.600;23.470;2023-03-03T09:51:25;0.67;;;0.67;;
6037;SDS011;3047;42.600;23.470;2023-03-03T09:54:19;0.80;;;0.80;;
6037;SDS011;3047;42.600;23.470;2023-03-03T09:56:59;1.20;;;1.20;;
6037;SDS011;3047;42.600;23.470;2023-03-03T09:59:37;0.90;;;0.90;;
6037;SDS011;3047;42.600;23.470;2023-03-03T10:05:04;1.17;;;1.17;;
6037;SDS011;3047;42.600;23.470;2023-03-03T10:07:42;1.43;;;1.33;;
6037;SDS011;3047;42.600;23.470;2023-03-03T10:10:20;0.73;;;0.73;;
6037;SDS011;3047;42.600;23.470;2023-03-03T10:12:58;0.83;;;0.83;;
6037;SDS011;3047;42.600;23.470;2023-03-03T10:15:38;1.07;;;1.07;;
6037;SDS011;3047;42.600;23.470;2023-03-03T10:18:20;1.30;;;1.30;;
6037;SDS011;3047;42.600;23.470;2023-03-03T10:20:57;2.00;;;1.90;;
6037;SDS011;3047;42.600;23.470;2023-03-03T10:23:42;0.83;;;0.83;;
6037;SDS011;3047;42.600;23.470;2023-03-03T10:26:20;0.87;;;0.87;;
6037;SDS011;3047;42.600;23.470;2023-03-03T10:31:55;2.63;;;1.47;;
6037;SDS011;3047;42.600;23.470;2023-03-03T10:34:35;1.43;;;1.27;;
6037;SDS011;3047;42.600;23.470;2023-03-03T10:37:17;1.30;;;1.20;;
6037;SDS011;3047;42.600;23.470;2023-03-03T10:39:51;1.23;;;1.10;;
6037;SDS011;3047;42.600;23.470;2023-03-03T10:45:26;1.10;;;1.10;;
6037;SDS011;3047;42.600;23.470;2023-03-03T10:48:13;2.30;;;1.20;;
6037;SDS011;3047;42.600;23.470;2023-03-03T10:50:49;0.90;;;0.90;;
6037;SDS011;3047;42.600;23.470;2023-03-03T10:53:24;3.50;;;2.03;;
6037;SDS011;3047;42.600;23.470;2023-03-03T10:55:59;0.70;;;0.70;;
6037;SDS011;3047;42.600;23.470;2023-03-03T10:58:44;0.93;;;0.93;;
6037;SDS011;3047;42.600;23.470;2023-03-03T11:01:24;1.90;;;1.17;;
6037;SDS011;3047;42.600;23.470;2023-03-03T11:04:08;0.97;;;0.97;;
6037;SDS011;3047;42.600;23.470;2023-03-03T11:06:48;1.67;;;1.67;;
6037;SDS011;3047;42.600;23.470;2023-03-03T11:09:26;0.77;;;0.77;;
6037;SDS011;3047;42.600;23.470;2023-03-03T11:12:04;0.90;;;0.90;;
6037;SDS011;3047;42.600;23.470;2023-03-03T11:14:43;1.90;;;1.80;;
6037;SDS011;3047;42.600;23.470;2023-03-03T11:17:14;3.33;;;1.03;;
6037;SDS011;3047;42.600;23.470;2023-03-03T11:19:54;1.00;;;1.00;;
6037;SDS011;3047;42.600;23.470;2023-03-03T11:22:32;0.90;;;0.90;;
6037;SDS011;3047;42.600;23.470;2023-03-03T11:25:07;1.20;;;1.20;;
6037;SDS011;3047;42.600;23.470;2023-03-03T11:30:52;0.70;;;0.70;;
6037;SDS011;3047;42.600;23.470;2023-03-03T11:33:32;1.90;;;1.40;;
6037;SDS011;3047;42.600;23.470;2023-03-03T11:36:08;0.87;;;0.87;;
6037;SDS011;3047;42.600;23.470;2023-03-03T11:38:43;2.73;;;1.90;;
6037;SDS011;3047;42.600;23.470;2023-03-03T11:41:16;0.97;;;0.97;;
6037;SDS011;3047;42.600;23.470;2023-03-03T11:43:55;4.53;;;2.10;;
6037;SDS011;3047;42.600;23.470;2023-03-03T11:46:31;9.57;;;1.57;;
6037;SDS011;3047;42.600;23.470;2023-03-03T11:49:04;0.70;;;0.70;;
6037;SDS011;3047;42.600;23.470;2023-03-03T11:51:40;1.23;;;1.23;;
6037;SDS011;3047;42.600;23.470;2023-03-03T11:54:14;1.00;;;1.00;;
6037;SDS011;3047;42.600;23.470;2023-03-03T11:56:46;1.77;;;1.67;;
6037;SDS011;3047;42.600;23.470;2023-03-03T11:59:19;1.87;;;1.13;;
6037;SDS011;3047;42.600;23.470;2023-03-03T12:02:02;18.73;;;4.33;;
6037;SDS011;3047;42.600;23.470;2023-03-03T12:04:46;2.73;;;2.63;;
6037;SDS011;3047;42.600;23.470;2023-03-03T12:07:20;4.17;;;2.00;;
6037;SDS011;3047;42.600;23.470;2023-03-03T12:09:59;2.80;;;2.60;;
6037;SDS011;3047;42.600;23.470;2023-03-03T12:12:39;1.83;;;1.73;;
6037;SDS011;3047;42.600;23.470;2023-03-03T12:15:12;3.13;;;1.53;;
6037;SDS011;3047;42.600;23.470;2023-03-03T12:17:56;0.93;;;0.93;;
6037;SDS011;3047;42.600;23.470;2023-03-03T12:20:36;3.87;;;1.40;;
6037;SDS011;3047;42.600;23.470;2023-03-03T12:23:13;1.63;;;1.63;;
6037;SDS011;3047;42.600;23.470;2023-03-03T12:26:00;1.67;;;1.57;;
6037;SDS011;3047;42.600;23.470;2023-03-03T12:28:31;4.00;;;1.37;;
6037;SDS011;3047;42.600;23.470;2023-03-03T12:34:01;1.70;;;1.10;;
6037;SDS011;3047;42.600;23.470;2023-03-03T12:39:41;4.67;;;2.13;;
6037;SDS011;3047;42.600;23.470;2023-03-03T12:42:15;1.30;;;1.30;;
6037;SDS011;3047;42.600;23.470;2023-03-03T12:44:50;1.50;;;1.50;;
6037;SDS011;3047;42.600;23.470;2023-03-03T12:47:26;1.60;;;1.40;;
6037;SDS011;3047;42.600;23.470;2023-03-03T12:50:01;1.43;;;1.33;;
6037;SDS011;3047;42.600;23.470;2023-03-03T12:52:38;1.27;;;1.23;;
6037;SDS011;3047;42.600;23.470;2023-03-03T12:55:16;1.47;;;1.40;;
6037;SDS011;3047;42.600;23.470;2023-03-03T12:57:51;2.00;;;1.67;;
6037;SDS011;3047;42.600;23.470;2023-03-03T13:00:26;1.93;;;1.50;;
6037;SDS011;3047;42.600;23.470;2023-03-03T13:03:04;2.00;;;1.90;;
6037;SDS011;3047;42.600;23.470;2023-03-03T13:05:43;5.20;;;2.63;;
6037;SDS011;3047;42.600;23.470;2023-03-03T13:08:22;1.87;;;1.73;;
6037;SDS011;3047;42.600;23.470;2023-03-03T13:10:58;1.70;;;1.40;;
6037;SDS011;3047;42.600;23.470;2023-03-03T13:13:32;5.23;;;2.93;;
6037;SDS011;3047;42.600;23.470;2023-03-03T13:16:08;4.63;;;2.67;;
6037;SDS011;3047;42.600;23.470;2023-03-03T13:18:41;2.77;;;1.73;;
6037;SDS011;3047;42.600;23.470;2023-03-03T13:21:19;1.60;;;1.57;;
6037;SDS011;3047;42.600;23.470;2023-03-03T13:23:50;5.03;;;2.83;;
6037;SDS011;3047;42.600;23.470;2023-03-03T13:26:25;9.53;;;2.93;;
6037;SDS011;3047;42.600;23.470;2023-03-03T13:28:57;3.00;;;1.53;;
6037;SDS011;3047;42.600;23.470;2023-03-03T13:31:28;1.20;;;1.10;;
6037;SDS011;3047;42.600;23.470;2023-03-03T13:33:59;2.07;;;1.87;;
6037;SDS011;3047;42.600;23.470;2023-03-03T13:36:29;14.70;;;2.63;;
6037;SDS011;3047;42.600;23.470;2023-03-03T13:39:04;6.23;;;2.17;;
6037;SDS011;3047;42.600;23.470;2023-03-03T13:41:41;7.20;;;3.50;;
6037;SDS011;3047;42.600;23.470;2023-03-03T13:44:16;2.33;;;2.13;;
6037;SDS011;3047;42.600;23.470;2023-03-03T13:46:53;6.83;;;3.27;;
6037;SDS011;3047;42.600;23.470;2023-03-03T13:49:34;1.63;;;1.53;;
6037;SDS011;3047;42.600;23.470;2023-03-03T13:52:12;3.43;;;2.40;;
6037;SDS011;3047;42.600;23.470;2023-03-03T13:57:44;1.43;;;1.30;;
6037;SDS011;3047;42.600;23.470;2023-03-03T14:00:22;3.23;;;2.03;;
6037;SDS011;3047;42.600;23.470;2023-03-03T14:06:11;8.33;;;3.07;;
6037;SDS011;3047;42.600;23.470;2023-03-03T14:08:49;3.10;;;2.87;;
6037;SDS011;3047;42.600;23.470;2023-03-03T14:11:28;6.13;;;2.27;;
6037;SDS011;3047;42.600;23.470;2023-03-03T14:13:58;8.80;;;3.37;;
6037;SDS011;3047;42.600;23.470;2023-03-03T14:16:38;7.73;;;3.90;;
6037;SDS011;3047;42.600;23.470;2023-03-03T14:19:24;18.43;;;4.00;;
6037;SDS011;3047;42.600;23.470;2023-03-03T14:22:05;5.13;;;2.43;;
6037;SDS011;3047;42.600;23.470;2023-03-03T14:24:56;3.73;;;3.40;;
6037;SDS011;3047;42.600;23.470;2023-03-03T14:27:27;4.93;;;3.00;;
6037;SDS011;3047;42.600;23.470;2023-03-03T14:30:05;14.17;;;4.37;;
6037;SDS011;3047;42.600;23.470;2023-03-03T14:32:58;2.03;;;1.97;;
6037;SDS011;3047;42.600;23.470;2023-03-03T14:35:28;8.90;;;3.43;;
6037;SDS011;3047;42.600;23.470;2023-03-03T14:37:59;3.43;;;1.97;;
6037;SDS011;3047;42.600;23.470;2023-03-03T14:40:30;12.70;;;4.43;;
6037;SDS011;3047;42.600;23.470;2023-03-03T14:42:58;7.90;;;3.27;;
6037;SDS011;3047;42.600;23.470;2023-03-03T14:45:31;2.30;;;2.20;;
6037;SDS011;3047;42.600;23.470;2023-03-03T14:48:04;16.93;;;2.93;;
6037;SDS011;3047;42.600;23.470;2023-03-03T14:50:41;1.70;;;1.60;;
6037;SDS011;3047;42.600;23.470;2023-03-03T14:53:14;2.50;;;1.90;;
6037;SDS011;3047;42.600;23.470;2023-03-03T14:55:47;1.47;;;1.47;;
6037;SDS011;3047;42.600;23.470;2023-03-03T14:58:28;2.77;;;1.40;;
6037;SDS011;3047;42.600;23.470;2023-03-03T15:01:11;1.57;;;1.47;;
6037;SDS011;3047;42.600;23.470;2023-03-03T15:03:44;2.23;;;2.10;;
6037;SDS011;3047;42.600;23.470;2023-03-03T15:06:25;1.27;;;1.23;;
6037;SDS011;3047;42.600;23.470;2023-03-03T15:08:54;2.87;;;2.57;;
6037;SDS011;3047;42.600;23.470;2023-03-03T15:11:26;1.90;;;1.90;;
6037;SDS011;3047;42.600;23.470;2023-03-03T15:14:09;1.50;;;1.40;;
6037;SDS011;3047;42.600;23.470;2023-03-03T15:16:39;1.20;;;1.20;;
6037;SDS011;3047;42.600;23.470;2023-03-03T15:19:22;4.27;;;1.93;;
6037;SDS011;3047;42.600;23.470;2023-03-03T15:22:08;1.73;;;1.63;;
6037;SDS011;3047;42.600;23.470;2023-03-03T15:24:44;5.17;;;1.73;;
6037;SDS011;3047;42.600;23.470;2023-03-03T15:27:20;1.90;;;1.80;;
6037;SDS011;3047;42.600;23.470;2023-03-03T15:30:00;1.70;;;1.60;;
6037;SDS011;3047;42.600;23.470;2023-03-03T15:32:36;1.43;;;1.43;;
6037;SDS011;3047;42.600;23.470;2023-03-03T15:35:13;2.13;;;2.03;;
6037;SDS011;3047;42.600;23.470;2023-03-03T15:37:51;3.37;;;3.07;;
6037;SDS011;3047;42.600;23.470;2023-03-03T15:40:23;3.27;;;2.97;;
6037;SDS011;3047;42.600;23.470;2023-03-03T15:42:56;3.10;;;2.90;;
6037;SDS011;3047;42.600;23.470;2023-03-03T15:45:30;1.93;;;1.83;;
6037;SDS011;3047;42.600;23.470;2023-03-03T15:48:11;2.50;;;2.27;;
6037;SDS011;3047;42.600;23.470;2023-03-03T15:51:00;1.50;;;1.50;;
6037;SDS011;3047;42.600;23.470;2023-03-03T15:53:37;2.27;;;2.17;;
6037;SDS011;3047;42.600;23.470;2023-03-03T15:56:27;1.60;;;1.53;;
6037;SDS011;3047;42.600;23.470;2023-03-03T15:59:11;1.43;;;1.33;;
6037;SDS011;3047;42.600;23.470;2023-03-03T16:01:52;1.70;;;1.70;;
6037;SDS011;3047;42.600;23.470;2023-03-03T16:04:30;1.67;;;1.57;;
6037;SDS011;3047;42.600;23.470;2023-03-03T16:07:01;3.03;;;1.57;;
6037;SDS011;3047;42.600;23.470;2023-03-03T16:09:38;3.80;;;2.03;;
6037;SDS011;3047;42.600;23.470;2023-03-03T16:12:17;2.43;;;2.23;;